Terminal Aerodrome Forecast
Issued by NWS Twin Cities, MN

Home | Current Version | Previous Version | Text Only | Print | Product List | Glossary Off
Versions: 1 2 3 4 5 6 7 8 9 10 11 12 13 14 15 16 17 18 19 20 21 22 23 24 25 26 27 28 29

722
FTUS43 KMPX 041503 AAA
TAFMSP
TAF AMD
KMSP 041503Z 0415/0518 17010KT 4SM BR OVC007
     FM042100 22009KT P6SM OVC012
     FM050200 22006KT P6SM SCT200
     FM050800 17005KT P6SM BKN150
     FM051500 13009KT P6SM OVC080=

USA.gov is the U.S. government's official web portal to all federal, state and local government web resources and services.